Sunday, July 22, 2018, 12:24 AM EDT
Back to Local

KMGJ, Montgomery Orange Co Airport

Location: Montgomery, NY, United States Lat: 41.517
Local Time: 12:24 AM EDT ( 4:24 GMT) Lon: -74.267
Time Zone: US/Eastern Elev: 354 ft

Show me the last for .
Show Decoded

2018-07-21 23:54 METAR KMGJ 220354Z AUTO 04007KT 10SM -RA OVC024 18/16 A2995 RMK AO2 SLP139 P0001
                 T01780156 =
2018-07-21 23:03 METAR KMGJ 220303Z AUTO 10006KT 10SM -RA OVC029 19/14 A2997 RMK AO2 P0000
                 T01890139 =
2018-07-21 22:54 METAR KMGJ 220254Z AUTO 07007KT 10SM -RA OVC030 19/14 A2997 RMK AO2 SLP146 P0000
                 60000 T01940139 58017 =
2018-07-21 21:54 METAR KMGJ 220154Z AUTO 05007KT 10SM -RA OVC031 21/13 A2998 RMK AO2 RAB24 SLP151
                 P0000 T02110128 =
2018-07-21 20:54 METAR KMGJ 220054Z AUTO 06008KT 10SM BKN039 OVC049 21/12 A3000 RMK AO2 SLP157
                 T02110117 =
2018-07-21 19:54 METAR KMGJ 212354Z AUTO 03006KT 10SM SCT047 21/13 A3002 RMK AO2 SLP163 T02110133
                 10250 20211 58006 =
2018-07-21 18:54 METAR KMGJ 212254Z AUTO 10009KT 10SM CLR 21/13 A3003 RMK AO2 SLP167 T02110128 =
2018-07-21 17:54 METAR KMGJ 212154Z AUTO 12005KT 10SM CLR 22/11 A3003 RMK AO2 SLP168 T02170111 =
2018-07-21 16:54 METAR KMGJ 212054Z AUTO 10012KT 10SM CLR 23/11 A3004 RMK AO2 SLP169 T02280106
                 56009 =
2018-07-21 15:54 METAR KMGJ 211954Z AUTO 12008KT 10SM CLR 24/13 A3004 RMK AO2 SLP171 T02390133 =
2018-07-21 14:54 METAR KMGJ 211854Z AUTO 16009KT 10SM CLR 24/13 A3005 RMK AO2 SLP174 T02390128 =
2018-07-21 13:54 METAR KMGJ 211754Z AUTO 13011KT 10SM CLR 25/13 A3006 RMK AO2 SLP178 T02500128
                 10256 20178 56015 =
2018-07-21 12:54 METAR KMGJ 211654Z AUTO 15007KT 10SM FEW047 25/14 A3007 RMK AO2 SLP182 T02500139
                 =
2018-07-21 11:54 METAR KMGJ 211554Z AUTO 08008KT 10SM FEW041 24/14 A3009 RMK AO2 SLP189 T02440144
                 =
2018-07-21 10:54 METAR KMGJ 211454Z AUTO VRB05KT 10SM SCT036 23/14 A3011 RMK AO2 SLP194 T02330144
                 50003 =
2018-07-21 09:54 METAR KMGJ 211354Z AUTO 10007KT 10SM SCT025 BKN031 22/15 A3011 RMK AO2 SLP194
                 T02170150 =
2018-07-21 08:54 METAR KMGJ 211254Z AUTO VRB05KT 10SM CLR 21/17 A3011 RMK AO2 SLP194 T02110172 =
2018-07-21 07:54 METAR KMGJ 211154Z AUTO 04005KT 10SM CLR 18/16 A3010 RMK AO2 SLP190 60000
                 T01780156 10178 20128 56004 =
2018-07-21 06:54 METAR KMGJ 211054Z AUTO 00000KT 10SM CLR 15/14 A3011 RMK AO2 SLP193 T01500139 =
2018-07-21 05:54 METAR KMGJ 210954Z AUTO 00000KT 10SM CLR 14/13 A3010 RMK AO2 RAB24E42 SLP192
                 P0000 T01390133 =
2018-07-21 04:54 METAR KMGJ 210854Z AUTO 00000KT 10SM CLR 13/13 A3011 RMK AO2 SLP195 T01330128
                 57001 =
2018-07-21 03:54 METAR KMGJ 210754Z AUTO 00000KT 10SM CLR 13/13 A3011 RMK AO2 SLP194 T01330128 =
2018-07-21 02:54 METAR KMGJ 210654Z AUTO 00000KT 10SM CLR 14/13 A3011 RMK AO2 SLP195 T01440133 =
2018-07-21 01:54 METAR KMGJ 210554Z AUTO 01003KT 10SM CLR 15/14 A3011 RMK AO2 SLP195 T01500139
                 10239 20150 57005 =
2018-07-21 00:54 METAR KMGJ 210454Z AUTO 00000KT 10SM CLR 16/13 A3012 RMK AO2 SLP197 T01560133
                 402890122 =

Support USWX by starting your Amazon purchase here.